Aviation Digital Data Service (ADDS)

Output produced by METARs form (0641 UTC 02 September 2014)
found at http://aviationweather.gov/adds/metars/
 
KAND 020535Z 0206/0306 00000KT P6SM SCT250 
     FM021000 00000KT 5SM BR SCT250 
     FM021300 24004KT P6SM SCT250 
     FM021900 25007KT P6SM SCT060 
     FM022100 24006KT P6SM BKN060 
     PROB30 0221/0224 4SM TSRA BKN040CB 
     FM030000 24003KT P6SM BKN060